Time;durP1;ratioP1;P1;durP2;ratioP2;P2;SDS_P1;SDS_P2;PMS_P1;PMS_P2;Temp;Humidity;BMP_temperature;BMP_pressure;BME280_temperature;BME280_humidity;BME280_pressure;Samples;Min_cycle;Max_cycle;Signal;HPM_P1;HPM_P2
2021/12/02 00:01:16;;;;;;;1.73;1.25;;;;;;;5.56;81.35;93820.03;4973563;28;20123;-77
2021/12/02 00:03:43;;;;;;;2.15;1.17;;;;;;;5.64;81.52;93810.78;5006767;28;20407;-77
2021/12/02 00:06:13;;;;;;;1.35;1.25;;;;;;;5.46;82.05;93809.66;5023386;28;20041;-76
2021/12/02 00:08:39;;;;;;;1.45;1.20;;;;;;;5.54;81.59;93827.34;4995436;28;20034;-77
2021/12/02 00:11:05;;;;;;;2.58;1.27;;;;;;;5.47;82.14;93821.66;4992796;28;20046;-76
2021/12/02 00:13:40;;;;;;;1.77;1.35;;;;;;;5.44;82.54;93822.22;5018849;28;20046;-76
2021/12/02 00:21:23;;;;;;;1.42;1.25;;;;;;;5.58;80.30;93817.13;5012200;28;20045;-77
2021/12/02 00:24:08;;;;;;;1.60;1.13;;;;;;;5.55;80.87;93828.88;5006233;28;20039;-76
2021/12/02 00:26:37;;;;;;;1.75;1.13;;;;;;;5.51;80.52;93823.44;4978765;28;20092;-77
2021/12/02 00:29:05;;;;;;;1.73;1.30;;;;;;;5.45;81.82;93810.75;5009165;28;20037;-76
2021/12/02 00:31:35;;;;;;;3.03;1.27;;;;;;;5.46;81.76;93825.31;5008179;28;20042;-77
2021/12/02 00:34:04;;;;;;;2.13;1.40;;;;;;;5.50;81.44;93821.09;5004446;28;20526;-77
2021/12/02 00:36:32;;;;;;;1.60;1.30;;;;;;;5.48;81.55;93815.41;4996405;28;20054;-77
2021/12/02 00:39:00;;;;;;;2.47;1.30;;;;;;;5.51;81.79;93827.88;4976171;28;20053;-76
2021/12/02 00:41:28;;;;;;;2.63;1.15;;;;;;;5.46;81.95;93814.88;5022362;28;20125;-77
2021/12/02 00:43:55;;;;;;;1.25;0.98;;;;;;;5.45;81.27;93819.34;5008412;28;20105;-75
2021/12/02 00:46:23;;;;;;;1.60;1.30;;;;;;;5.45;81.53;93813.34;5006819;28;20046;-77
2021/12/02 00:48:49;;;;;;;1.13;1.02;;;;;;;5.42;81.79;93814.69;5007533;28;20042;-77
2021/12/02 00:51:17;;;;;;;2.83;1.10;;;;;;;5.52;80.79;93819.00;5015004;28;20495;-77
2021/12/02 00:53:46;;;;;;;1.73;1.23;;;;;;;5.37;81.41;93825.97;5007298;28;20050;-77
2021/12/02 00:56:16;;;;;;;1.45;1.23;;;;;;;5.44;81.00;93817.00;4991262;28;20132;-75
2021/12/02 00:58:46;;;;;;;1.95;1.20;;;;;;;5.43;81.46;93825.88;5009175;28;20053;-77
2021/12/02 01:01:11;;;;;;;3.22;1.40;;;;;;;5.23;81.79;93819.84;5018108;28;20046;-77
2021/12/02 01:03:38;;;;;;;1.98;1.27;;;;;;;5.30;81.32;93828.13;4995545;28;20133;-77
2021/12/02 01:06:06;;;;;;;1.08;1.00;;;;;;;5.35;81.19;93830.66;5015894;28;20079;-77
2021/12/02 01:08:33;;;;;;;2.00;1.23;;;;;;;5.27;80.23;93807.81;4994217;28;20053;-76
2021/12/02 01:11:00;;;;;;;1.83;1.40;;;;;;;5.21;81.40;93829.75;5010618;28;20048;-77
2021/12/02 01:13:25;;;;;;;2.03;1.38;;;;;;;5.18;80.95;93815.44;5008730;28;20050;-77
2021/12/02 01:15:52;;;;;;;1.45;1.05;;;;;;;5.22;81.85;93815.69;4989920;28;20045;-76
2021/12/02 01:18:17;;;;;;;3.28;1.58;;;;;;;5.12;82.13;93815.78;5008251;28;20505;-75
2021/12/02 01:20:47;;;;;;;1.85;1.23;;;;;;;5.11;81.59;93809.00;5006275;28;20124;-75
2021/12/02 01:23:14;;;;;;;1.98;1.30;;;;;;;5.05;81.72;93815.34;5004625;28;20160;-76
2021/12/02 01:25:40;;;;;;;1.75;1.30;;;;;;;4.90;82.12;93817.03;4998441;28;20046;-76
2021/12/02 01:28:07;;;;;;;1.73;1.40;;;;;;;5.00;81.37;93806.50;4997379;28;20074;-77
2021/12/02 01:30:32;;;;;;;3.95;1.13;;;;;;;5.06;80.83;93806.44;4995001;28;20042;-76
2021/12/02 01:33:06;;;;;;;1.50;1.20;;;;;;;4.95;81.08;93796.13;5005947;28;22124;-76
2021/12/02 01:35:33;;;;;;;2.00;1.20;;;;;;;4.90;81.10;93793.56;5005490;28;20046;-76
2021/12/02 01:38:00;;;;;;;2.85;1.27;;;;;;;4.81;81.71;93810.84;5011168;28;20054;-77
2021/12/02 01:40:26;;;;;;;2.80;1.50;;;;;;;4.72;81.73;93796.84;5012169;28;20112;-76
2021/12/02 01:42:55;;;;;;;1.75;1.38;;;;;;;4.73;81.63;93801.03;4994386;28;20049;-77
2021/12/02 01:45:27;;;;;;;1.73;1.38;;;;;;;4.77;82.01;93804.63;5006882;28;20052;-75
2021/12/02 01:47:55;;;;;;;2.60;1.45;;;;;;;4.75;82.11;93806.72;4980883;28;20054;-75
2021/12/02 01:50:23;;;;;;;2.83;1.60;;;;;;;4.75;82.55;93804.13;4992943;28;20046;-77
2021/12/02 01:52:58;;;;;;;2.67;1.40;;;;;;;4.65;83.23;93803.16;4994601;28;20053;-77
2021/12/02 01:55:26;;;;;;;1.40;1.02;;;;;;;4.73;82.11;93803.63;5003628;28;20054;-77
2021/12/02 01:58:02;;;;;;;2.42;1.38;;;;;;;4.61;83.16;93801.38;5012449;28;20042;-78
2021/12/02 02:00:43;;;;;;;3.55;1.70;;;;;;;4.52;83.52;93814.19;4996428;28;20060;-75
2021/12/02 02:03:10;;;;;;;2.55;1.50;;;;;;;4.60;83.08;93805.81;4986197;28;20053;-78
2021/12/02 02:05:36;;;;;;;1.33;1.17;;;;;;;4.68;83.29;93807.84;5009072;28;20049;-78
2021/12/02 02:08:21;;;;;;;2.45;1.55;;;;;;;4.68;83.11;93810.44;4997196;28;20043;-78
2021/12/02 02:10:47;;;;;;;1.60;1.38;;;;;;;4.64;82.94;93814.63;4982817;28;20029;-78
2021/12/02 02:13:15;;;;;;;3.30;1.42;;;;;;;4.60;83.48;93811.03;5031406;28;20049;-78
2021/12/02 02:15:45;;;;;;;2.33;1.40;;;;;;;4.59;83.40;93804.25;5027213;28;20042;-76
2021/12/02 02:18:20;;;;;;;2.80;1.60;;;;;;;4.55;83.95;93820.69;4991782;28;20085;-76
2021/12/02 02:20:56;;;;;;;4.32;1.70;;;;;;;4.62;83.25;93808.91;5011372;28;20506;-77
2021/12/02 02:23:22;;;;;;;2.95;1.30;;;;;;;4.62;83.57;93819.31;4994160;28;20053;-78
2021/12/02 02:25:48;;;;;;;1.63;1.38;;;;;;;4.63;84.01;93820.88;5011272;28;20039;-78
2021/12/02 02:28:14;;;;;;;2.10;1.40;;;;;;;4.65;82.95;93821.38;5004619;28;20152;-78
2021/12/02 02:30:41;;;;;;;4.75;1.35;;;;;;;4.59;83.74;93819.88;5018015;28;20502;-78
2021/12/02 02:33:07;;;;;;;2.40;1.50;;;;;;;4.59;83.23;93819.88;5004559;28;20048;-78
2021/12/02 02:35:32;;;;;;;2.20;1.42;;;;;;;4.57;83.32;93810.78;5013945;28;20042;-78
2021/12/02 02:38:00;;;;;;;1.52;1.33;;;;;;;4.45;84.19;93816.34;4997680;28;20093;-79
2021/12/02 02:40:26;;;;;;;2.28;1.58;;;;;;;4.51;83.88;93807.44;4993051;28;20038;-78
2021/12/02 02:42:57;;;;;;;1.90;1.40;;;;;;;4.52;84.15;93814.19;5006174;28;20053;-78
2021/12/02 02:45:23;;;;;;;2.92;1.58;;;;;;;4.61;83.44;93802.16;5014993;28;20112;-76
2021/12/02 02:47:49;;;;;;;2.25;1.50;;;;;;;4.70;83.31;93810.16;5008015;28;20093;-77
2021/12/02 02:50:15;;;;;;;2.58;1.58;;;;;;;4.65;83.14;93818.00;5009216;28;20089;-75
2021/12/02 02:52:43;;;;;;;2.35;1.70;;;;;;;4.69;83.25;93814.59;4996984;28;20079;-77
2021/12/02 02:55:12;;;;;;;2.22;1.60;;;;;;;4.66;83.45;93820.34;4995148;28;20458;-77
2021/12/02 02:57:45;;;;;;;2.47;1.73;;;;;;;4.72;84.36;93828.13;5012940;28;20046;-76
2021/12/02 03:00:15;;;;;;;2.13;1.48;;;;;;;4.71;85.51;93831.78;5010098;28;20133;-76
2021/12/02 03:05:46;;;;;;;6.22;1.80;;;;;;;4.55;87.67;93834.50;4986585;28;20058;-77
2021/12/02 03:08:17;;;;;;;2.22;1.60;;;;;;;4.46;88.79;93831.69;5004908;28;20042;-79
2021/12/02 03:10:50;;;;;;;2.60;1.65;;;;;;;4.39;88.90;93830.47;5012666;28;20049;-78
2021/12/02 03:13:20;;;;;;;2.85;1.80;;;;;;;4.33;89.88;93830.47;4992725;28;20045;-78
2021/12/02 03:18:31;;;;;;;2.17;1.60;;;;;;;4.33;91.15;93838.28;5014351;28;20052;-78
2021/12/02 03:20:56;;;;;;;2.40;1.48;;;;;;;4.29;91.84;93837.28;5010248;28;20042;-79
2021/12/02 03:23:23;;;;;;;3.53;1.88;;;;;;;4.18;92.95;93830.59;5009845;28;20056;-78
2021/12/02 03:25:50;;;;;;;2.45;1.50;;;;;;;4.34;92.20;93839.84;5008157;28;20049;-79
2021/12/02 03:28:15;;;;;;;2.92;1.75;;;;;;;4.24;93.11;93839.94;4992611;28;20046;-79
2021/12/02 03:30:41;;;;;;;5.53;1.80;;;;;;;4.18;92.80;93841.00;5010254;28;20045;-79
2021/12/02 03:33:06;;;;;;;3.45;1.67;;;;;;;4.12;92.89;93862.91;5009865;28;20458;-78
2021/12/02 03:35:32;;;;;;;4.03;1.60;;;;;;;4.15;93.50;93867.56;5002946;28;20049;-78
2021/12/02 03:37:57;;;;;;;2.72;1.70;;;;;;;4.20;93.92;93870.16;5002559;28;20102;-78
2021/12/02 03:40:23;;;;;;;1.38;1.00;;;;;;;3.90;92.60;93882.25;5025035;28;20579;-79
2021/12/02 03:42:52;;;;;;;0.70;0.70;;;;;;;3.60;93.14;93883.94;4994977;28;20403;-78
2021/12/02 03:45:18;;;;;;;1.23;0.65;;;;;;;3.34;94.56;93882.44;4997323;28;20085;-78
2021/12/02 03:47:44;;;;;;;1.45;0.63;;;;;;;3.25;96.05;93877.78;4976901;28;20053;-78
2021/12/02 03:50:10;;;;;;;2.58;0.82;;;;;;;3.02;97.13;93888.75;5005475;28;20046;-78
2021/12/02 03:52:36;;;;;;;0.93;0.70;;;;;;;3.00;98.64;93893.41;5015733;28;20495;-78
2021/12/02 03:55:03;;;;;;;1.92;0.80;;;;;;;2.95;99.64;93883.78;5004657;28;20462;-78
2021/12/02 03:57:31;;;;;;;1.40;0.60;;;;;;;2.68;100.00;93879.63;4991387;28;20450;-77
2021/12/02 03:59:57;;;;;;;1.08;0.68;;;;;;;2.60;100.00;93877.53;5004840;28;20042;-77
2021/12/02 04:02:23;;;;;;;4.97;0.90;;;;;;;2.68;100.00;93878.84;5010580;28;20414;-78
2021/12/02 04:04:48;;;;;;;4.38;1.00;;;;;;;2.56;100.00;93874.69;5005902;28;20045;-79
2021/12/02 04:07:17;;;;;;;1.25;0.77;;;;;;;2.49;100.00;93879.38;4996405;28;20041;-78
2021/12/02 04:09:44;;;;;;;1.00;0.77;;;;;;;2.52;100.00;93876.25;5012056;28;20388;-76
2021/12/02 04:12:18;;;;;;;2.42;0.85;;;;;;;2.65;100.00;93874.19;4991275;28;20076;-76
2021/12/02 04:17:14;;;;;;;1.17;0.90;;;;;;;2.56;100.00;93872.09;5008429;28;20458;-76
2021/12/02 04:19:39;;;;;;;4.82;1.00;;;;;;;2.63;100.00;93866.66;5019689;28;20060;-76
2021/12/02 04:22:05;;;;;;;3.13;1.20;;;;;;;2.48;100.00;93870.00;5004579;28;20046;-76
2021/12/02 04:24:32;;;;;;;3.35;1.10;;;;;;;2.47;100.00;93872.88;5008020;28;20049;-76
2021/12/02 04:26:58;;;;;;;1.20;0.75;;;;;;;2.57;100.00;93868.47;4992340;28;20385;-74
2021/12/02 04:29:24;;;;;;;2.00;1.00;;;;;;;2.44;100.00;93874.16;5003106;28;20519;-74
2021/12/02 04:31:50;;;;;;;0.95;0.80;;;;;;;2.48;100.00;93864.81;5005137;28;20046;-75
2021/12/02 04:34:17;;;;;;;2.33;1.08;;;;;;;2.48;100.00;93864.81;5007278;28;20056;-78
2021/12/02 04:36:43;;;;;;;3.83;1.50;;;;;;;2.39;100.00;93871.56;5002942;28;20026;-78
2021/12/02 04:39:10;;;;;;;4.82;1.30;;;;;;;2.40;100.00;93865.34;4974652;28;20579;-77
2021/12/02 04:41:35;;;;;;;3.13;1.25;;;;;;;2.54;100.00;93850.81;4991374;28;20058;-78
2021/12/02 04:44:01;;;;;;;3.08;1.00;;;;;;;2.52;100.00;93857.31;5009994;28;20092;-76
2021/12/02 04:46:27;;;;;;;3.08;1.20;;;;;;;2.48;100.00;93859.63;4975660;28;20050;-74
2021/12/02 04:48:53;;;;;;;2.25;1.15;;;;;;;2.43;100.00;93862.22;4997157;28;20045;-76
2021/12/02 04:51:18;;;;;;;2.22;1.10;;;;;;;2.54;100.00;93856.00;5028853;28;20048;-75
2021/12/02 04:53:44;;;;;;;2.13;1.20;;;;;;;2.60;100.00;93862.75;5006791;28;20491;-75
2021/12/02 04:56:10;;;;;;;2.42;1.20;;;;;;;2.65;100.00;93858.59;5010659;28;20585;-76
2021/12/02 04:58:35;;;;;;;1.55;1.27;;;;;;;2.56;100.00;93866.91;4993483;28;20046;-76
2021/12/02 05:01:01;;;;;;;2.45;1.20;;;;;;;2.51;100.00;93868.72;5028139;28;20045;-76
2021/12/02 05:03:27;;;;;;;1.73;1.10;;;;;;;2.65;100.00;93863.81;5009299;28;20042;-76
2021/12/02 05:05:52;;;;;;;1.77;1.20;;;;;;;2.75;100.00;93869.00;5014398;28;20132;-76
2021/12/02 05:08:18;;;;;;;2.80;1.40;;;;;;;2.57;100.00;93858.09;5003956;28;20042;-77
2021/12/02 05:10:44;;;;;;;3.97;1.63;;;;;;;2.59;100.00;93871.56;5016365;28;20446;-78
2021/12/02 05:13:09;;;;;;;3.55;1.48;;;;;;;2.81;100.00;93862.75;5007681;28;20924;-77
2021/12/02 05:15:35;;;;;;;3.83;1.60;;;;;;;2.83;100.00;93860.69;5007964;28;20050;-78
2021/12/02 05:18:00;;;;;;;3.05;1.40;;;;;;;2.84;100.00;93862.22;4992719;28;20507;-77
2021/12/02 05:20:26;;;;;;;2.97;1.52;;;;;;;2.77;100.00;93866.91;5019377;28;20045;-77
2021/12/02 05:22:51;;;;;;;1.63;1.30;;;;;;;2.78;100.00;93864.03;5007823;28;20053;-77
2021/12/02 05:25:17;;;;;;;3.28;1.50;;;;;;;2.71;100.00;93873.16;5003947;28;20042;-78
2021/12/02 05:27:43;;;;;;;2.47;1.55;;;;;;;2.75;100.00;93874.94;5003483;28;20048;-78
2021/12/02 05:30:09;;;;;;;3.70;1.48;;;;;;;2.67;100.00;93872.09;5007238;28;20056;-78
2021/12/02 05:32:35;;;;;;;6.57;1.80;;;;;;;2.73;100.00;93876.25;5004581;28;20109;-78
2021/12/02 05:35:01;;;;;;;2.78;1.50;;;;;;;2.68;100.00;93873.66;4999888;28;20107;-78
2021/12/02 05:37:27;;;;;;;2.90;1.90;;;;;;;2.72;100.00;93869.50;5004243;28;20046;-78
2021/12/02 05:39:52;;;;;;;5.03;1.73;;;;;;;2.88;100.00;93873.66;5008366;28;20045;-78
2021/12/02 05:42:18;;;;;;;3.95;1.80;;;;;;;3.06;100.00;93884.56;5006727;28;20038;-77
2021/12/02 05:44:45;;;;;;;3.38;1.90;;;;;;;3.10;100.00;93875.19;5004167;28;20057;-77
2021/12/02 05:47:11;;;;;;;3.15;1.98;;;;;;;3.03;100.00;93872.09;5006514;28;20446;-76
2021/12/02 05:49:37;;;;;;;2.22;1.42;;;;;;;3.11;100.00;93863.75;4991431;28;20103;-76
2021/12/02 05:52:03;;;;;;;1.83;1.60;;;;;;;2.98;100.00;93856.50;5008060;28;20045;-75
2021/12/02 05:54:28;;;;;;;3.90;1.80;;;;;;;3.01;100.00;93871.56;5000495;28;20046;-76
2021/12/02 05:56:54;;;;;;;2.15;1.45;;;;;;;3.16;100.00;93866.38;5007865;28;20586;-76
2021/12/02 05:59:20;;;;;;;2.90;1.50;;;;;;;3.12;100.00;93870.53;5007203;28;20418;-79
2021/12/02 06:01:45;;;;;;;2.65;1.70;;;;;;;3.03;100.00;93874.69;4992143;28;20053;-78
2021/12/02 06:04:11;;;;;;;3.35;1.50;;;;;;;3.17;100.00;93880.91;5007680;28;20057;-78
2021/12/02 06:06:38;;;;;;;3.55;1.80;;;;;;;3.11;100.00;93874.16;4977875;28;20042;-77
2021/12/02 06:09:05;;;;;;;3.65;1.60;;;;;;;3.17;100.00;93875.69;5006594;28;20046;-77
2021/12/02 06:11:31;;;;;;;2.55;1.52;;;;;;;3.06;100.00;93874.94;5009166;28;20120;-78
2021/12/02 06:13:56;;;;;;;1.70;1.40;;;;;;;3.11;100.00;93876.75;5008366;28;20026;-78
2021/12/02 06:16:22;;;;;;;4.63;1.80;;;;;;;3.15;100.00;93867.41;5001710;28;20045;-76
2021/12/02 06:18:47;;;;;;;2.72;1.40;;;;;;;3.09;100.00;93878.84;5001664;28;20049;-75
2021/12/02 06:21:13;;;;;;;1.75;1.48;;;;;;;3.21;100.00;93874.13;5012241;28;20073;-76
2021/12/02 06:23:41;;;;;;;2.22;1.42;;;;;;;3.22;100.00;93867.91;5011162;28;20053;-76
2021/12/02 06:26:10;;;;;;;2.67;1.33;;;;;;;3.25;100.00;93872.56;5012804;28;20049;-76
2021/12/02 06:28:35;;;;;;;1.85;1.20;;;;;;;3.20;100.00;93869.97;5000951;28;20042;-76
2021/12/02 06:31:02;;;;;;;4.10;1.40;;;;;;;3.22;100.00;93867.09;5010380;28;20092;-76
2021/12/02 06:33:29;;;;;;;1.55;1.20;;;;;;;3.20;100.00;93875.19;4993913;28;20039;-77
2021/12/02 06:35:55;;;;;;;1.25;1.00;;;;;;;3.20;100.00;93869.97;4991282;28;20042;-78
2021/12/02 06:38:21;;;;;;;1.63;1.20;;;;;;;3.13;98.58;93885.06;5022194;28;20116;-78
2021/12/02 06:40:46;;;;;;;2.97;1.45;;;;;;;3.20;97.17;93890.78;5007897;28;20084;-77
2021/12/02 06:43:16;;;;;;;1.52;1.20;;;;;;;3.20;97.14;93895.19;4993314;28;20049;-78
2021/12/02 06:45:42;;;;;;;3.15;1.27;;;;;;;3.24;97.65;93897.00;5007728;28;20073;-78
2021/12/02 06:48:08;;;;;;;1.95;1.17;;;;;;;3.18;96.14;93898.06;5009269;28;20520;-79
2021/12/02 06:50:36;;;;;;;4.43;1.38;;;;;;;3.22;96.26;93904.31;5010548;28;20046;-77
2021/12/02 06:53:02;;;;;;;2.72;1.10;;;;;;;3.16;96.44;93904.56;4992137;28;20111;-77
2021/12/02 06:55:28;;;;;;;2.45;1.25;;;;;;;3.16;96.11;93900.16;5003135;28;20484;-76
2021/12/02 06:57:54;;;;;;;2.35;1.35;;;;;;;3.15;96.95;93903.78;4997827;28;20038;-78
2021/12/02 07:00:22;;;;;;;1.40;1.10;;;;;;;3.14;95.03;93906.66;5010867;28;20046;-78
2021/12/02 07:02:48;;;;;;;3.17;1.20;;;;;;;3.18;95.42;93907.69;4994286;28;20041;-78
2021/12/02 07:05:16;;;;;;;2.03;1.20;;;;;;;3.14;94.50;93902.22;5012044;28;20038;-78
2021/12/02 07:07:42;;;;;;;2.03;1.33;;;;;;;3.26;91.93;93900.16;5004114;28;20073;-78
2021/12/02 07:10:11;;;;;;;2.83;1.30;;;;;;;3.15;93.35;93909.00;5009404;28;20073;-78
2021/12/02 07:12:40;;;;;;;1.92;1.20;;;;;;;3.17;94.62;93912.09;5009405;28;20046;-76
2021/12/02 07:15:24;;;;;;;3.55;1.40;;;;;;;3.29;94.17;93904.81;5008822;28;20381;-76
2021/12/02 07:17:54;;;;;;;2.35;1.40;;;;;;;3.28;93.85;93905.84;5012723;28;20053;-76
2021/12/02 07:20:21;;;;;;;2.83;1.58;;;;;;;3.27;90.92;93912.06;4991587;28;20049;-76
2021/12/02 07:22:46;;;;;;;2.15;1.25;;;;;;;3.34;89.32;93895.44;5010229;28;20113;-79
2021/12/02 07:25:12;;;;;;;4.82;1.92;;;;;;;3.12;91.07;93904.31;5016590;28;20125;-79
2021/12/02 07:27:37;;;;;;;1.85;1.30;;;;;;;3.08;91.58;93898.09;5014002;28;20049;-78
2021/12/02 07:30:06;;;;;;;2.83;1.50;;;;;;;3.14;92.90;93904.81;5008438;28;20096;-76
2021/12/02 07:32:39;;;;;;;4.25;1.60;;;;;;;3.16;93.82;93905.34;4988999;28;20045;-79
2021/12/02 07:35:16;;;;;;;3.08;1.50;;;;;;;3.23;91.60;93905.88;5011301;28;20104;-75
2021/12/02 07:37:44;;;;;;;3.72;1.17;;;;;;;3.21;92.67;93910.53;5001538;28;20057;-80
2021/12/02 07:40:11;;;;;;;3.08;1.50;;;;;;;3.30;91.50;93910.78;4998085;28;20053;-79
2021/12/02 07:42:37;;;;;;;1.63;1.20;;;;;;;3.20;92.08;93916.75;4993805;28;20038;-78
2021/12/02 07:45:05;;;;;;;4.32;1.55;;;;;;;3.22;91.77;93919.91;5009504;28;20042;-77
2021/12/02 07:47:33;;;;;;;4.22;1.25;;;;;;;3.26;89.49;93915.75;5010790;28;20049;-77
2021/12/02 07:49:59;;;;;;;3.25;1.17;;;;;;;3.22;90.45;93919.91;5011460;28;20038;-77
2021/12/02 07:52:26;;;;;;;3.72;1.30;;;;;;;3.20;91.29;93919.38;5020704;28;20178;-76
2021/12/02 07:54:53;;;;;;;4.55;1.33;;;;;;;3.14;91.48;93915.22;4987691;28;20045;-78
2021/12/02 07:57:19;;;;;;;3.33;1.40;;;;;;;3.17;91.56;93917.28;5014446;28;20038;-77
2021/12/02 07:59:49;;;;;;;4.93;1.52;;;;;;;3.16;91.67;93910.56;5004503;28;20044;-78
2021/12/02 08:02:16;;;;;;;4.38;1.25;;;;;;;3.29;90.66;93904.81;4991425;28;20415;-78
2021/12/02 08:04:41;;;;;;;5.80;1.50;;;;;;;3.29;89.71;93910.00;5008632;28;20061;-76
2021/12/02 08:07:07;;;;;;;3.28;1.52;;;;;;;3.27;90.13;93912.06;5003181;28;20126;-76
2021/12/02 08:09:33;;;;;;;4.63;1.48;;;;;;;3.25;90.37;93908.97;4999932;28;20495;-80
2021/12/02 08:11:59;;;;;;;4.47;1.50;;;;;;;3.18;90.58;93903.25;5004384;28;20487;-76
2021/12/02 08:14:26;;;;;;;6.00;1.40;;;;;;;3.20;90.48;93906.38;4989833;28;20052;-77
2021/12/02 08:16:52;;;;;;;2.30;1.40;;;;;;;3.14;90.86;93897.03;5007695;28;20076;-79
2021/12/02 08:19:18;;;;;;;3.22;1.30;;;;;;;3.17;91.09;93896.50;4993637;28;20070;-80
2021/12/02 08:21:43;;;;;;;2.20;1.25;;;;;;;3.24;90.43;93897.00;5008940;28;20084;-80
2021/12/02 08:24:09;;;;;;;1.98;1.30;;;;;;;3.23;89.39;93898.06;5011620;28;20046;-80
2021/12/02 08:26:35;;;;;;;6.22;1.50;;;;;;;3.34;90.47;93900.66;5006896;28;20052;-78
2021/12/02 08:29:02;;;;;;;3.50;1.38;;;;;;;3.34;89.19;93900.66;5010908;28;20042;-80
2021/12/02 08:31:28;;;;;;;4.72;1.17;;;;;;;3.33;88.01;93909.47;4988129;28;20141;-79
2021/12/02 08:33:54;;;;;;;3.33;0.80;;;;;;;3.43;87.52;93909.47;4995277;28;20639;-80
2021/12/02 08:36:24;;;;;;;2.13;1.08;;;;;;;3.41;88.23;93916.75;5004572;28;20080;-80
2021/12/02 08:38:50;;;;;;;3.00;1.38;;;;;;;3.25;87.91;93914.19;5012485;28;20050;-79
2021/12/02 08:41:20;;;;;;;4.85;1.30;;;;;;;3.48;87.14;93917.25;4996683;28;20046;-80
2021/12/02 08:43:47;;;;;;;2.45;1.13;;;;;;;3.63;86.64;93901.63;4988167;28;20092;-79
2021/12/02 08:46:13;;;;;;;1.67;1.10;;;;;;;3.62;86.21;93907.88;5008999;28;20045;-80
2021/12/02 08:48:38;;;;;;;4.32;1.40;;;;;;;3.65;86.87;93906.56;5013305;28;20060;-80
2021/12/02 08:51:04;;;;;;;3.33;1.50;;;;;;;3.53;87.50;93908.66;5015420;28;20052;-80
2021/12/02 08:53:30;;;;;;;3.10;1.40;;;;;;;3.75;86.23;93910.94;5027448;28;20069;-80
2021/12/02 08:55:55;;;;;;;4.63;1.40;;;;;;;3.84;86.24;93908.59;5015883;28;20112;-80
2021/12/02 08:58:21;;;;;;;3.10;1.40;;;;;;;3.98;84.16;93910.34;5013604;28;20108;-81
2021/12/02 09:00:48;;;;;;;2.95;1.20;;;;;;;4.19;82.86;93907.66;5008199;28;20042;-79
2021/12/02 09:03:16;;;;;;;5.15;1.92;;;;;;;4.19;84.06;93899.84;4994231;28;20129;-80
2021/12/02 09:05:43;;;;;;;4.15;1.30;;;;;;;4.34;83.22;93907.56;5012952;28;20042;-80
2021/12/02 09:08:09;;;;;;;2.50;1.33;;;;;;;4.46;83.38;93909.06;4998707;28;20042;-80
2021/12/02 09:10:35;;;;;;;3.35;1.30;;;;;;;4.48;83.04;93912.19;4995509;28;20042;-80
2021/12/02 09:13:07;;;;;;;4.35;1.60;;;;;;;4.31;82.22;93913.31;4992373;28;20087;-80
2021/12/02 09:15:35;;;;;;;2.90;1.20;;;;;;;4.32;83.34;93912.28;5008587;28;20049;-80
2021/12/02 09:18:01;;;;;;;3.80;1.30;;;;;;;4.37;81.94;93921.09;5021405;28;20062;-80
2021/12/02 09:20:26;;;;;;;1.58;0.90;;;;;;;4.35;81.82;93916.16;5022191;28;20044;-80
2021/12/02 09:22:52;;;;;;;3.40;1.10;;;;;;;4.37;80.67;93921.09;5010603;28;20034;-79
2021/12/02 09:25:17;;;;;;;2.15;1.10;;;;;;;4.49;79.34;93913.75;5015949;28;20045;-80
2021/12/02 09:27:44;;;;;;;4.90;1.20;;;;;;;4.60;78.69;93898.84;5015015;28;20050;-80
2021/12/02 09:30:10;;;;;;;2.47;1.00;;;;;;;4.71;77.95;93900.28;5013365;28;20046;-79
2021/12/02 09:32:36;;;;;;;1.95;0.93;;;;;;;4.73;78.14;93897.44;4996728;28;20491;-80
2021/12/02 09:35:03;;;;;;;3.58;1.40;;;;;;;5.14;76.77;93897.09;4998878;28;20038;-81
2021/12/02 09:37:29;;;;;;;3.75;1.20;;;;;;;5.71;73.89;93900.72;5011506;28;20128;-79
2021/12/02 09:39:57;;;;;;;4.80;1.73;;;;;;;6.05;74.78;93905.09;5033110;28;20582;-79
2021/12/02 09:42:24;;;;;;;3.70;1.10;;;;;;;5.28;74.15;93892.81;5013987;28;20046;-79
2021/12/02 09:44:54;;;;;;;8.25;1.50;;;;;;;5.06;77.09;93906.31;5024541;28;20095;-80
2021/12/02 09:47:21;;;;;;;2.80;0.95;;;;;;;4.90;77.73;93900.44;5006655;28;20042;-80
2021/12/02 09:49:46;;;;;;;2.58;1.10;;;;;;;4.87;76.38;93903.59;4996716;28;20100;-80
2021/12/02 09:52:14;;;;;;;1.95;0.90;;;;;;;4.76;76.45;93900.28;5020623;28;20474;-79
2021/12/02 09:54:52;;;;;;;4.53;1.17;;;;;;;4.80;76.62;93897.91;5019492;28;20041;-82
2021/12/02 09:57:20;;;;;;;4.18;1.05;;;;;;;4.65;76.91;93885.75;5025706;28;20518;-80
2021/12/02 10:02:15;;;;;;;2.35;1.40;;;;;;;4.51;78.57;93880.38;5017471;28;20046;-79
2021/12/02 10:07:52;;;;;;;1.50;1.05;;;;;;;4.72;77.32;93882.84;5003199;28;20087;-79
2021/12/02 10:13:32;;;;;;;6.82;1.50;;;;;;;4.49;78.16;93872.06;5022769;28;20049;-77
2021/12/02 10:16:08;;;;;;;3.42;1.60;;;;;;;4.58;78.39;93869.66;4992247;28;20054;-78
2021/12/02 10:18:35;;;;;;;6.13;1.10;;;;;;;4.53;77.08;93867.88;5024027;28;20060;-79
2021/12/02 10:21:16;;;;;;;3.55;1.33;;;;;;;4.55;78.70;93868.38;5022707;28;20041;-79
2021/12/02 10:23:46;;;;;;;3.38;1.23;;;;;;;4.50;79.48;93868.41;5018711;28;20053;-82
2021/12/02 10:26:13;;;;;;;3.33;1.25;;;;;;;4.65;77.64;93859.69;5002390;28;20045;-80
2021/12/02 10:28:42;;;;;;;3.28;1.40;;;;;;;4.72;78.34;93854.19;5016511;28;20042;-81
2021/12/02 10:31:10;;;;;;;3.47;1.48;;;;;;;4.83;79.04;93850.47;5015938;28;20559;-79
2021/12/02 10:33:46;;;;;;;2.40;1.00;;;;;;;4.91;77.75;93852.44;5013452;28;20038;-80
2021/12/02 10:36:29;;;;;;;4.70;1.15;;;;;;;4.88;77.27;93841.81;5023744;28;20045;-79
2021/12/02 10:38:59;;;;;;;3.22;1.10;;;;;;;5.05;76.66;93839.56;5025854;28;20049;-80
2021/12/02 10:41:30;;;;;;;4.97;1.33;;;;;;;5.14;76.01;93844.97;5017548;28;20435;-79
2021/12/02 10:44:14;;;;;;;4.55;1.17;;;;;;;5.31;74.47;93839.31;5016344;28;20049;-79
2021/12/02 10:46:57;;;;;;;5.07;1.23;;;;;;;5.25;74.29;93841.19;5020605;28;20046;-79
2021/12/02 10:49:24;;;;;;;6.68;1.33;;;;;;;5.21;74.64;93829.75;5011863;28;22208;-81
2021/12/02 10:51:55;;;;;;;5.15;1.30;;;;;;;5.31;75.10;93824.44;5030838;28;20411;-80
2021/12/02 10:54:36;;;;;;;5.60;1.33;;;;;;;6.65;71.02;93828.00;5018728;28;20049;-77
2021/12/02 10:57:17;;;;;;;3.78;1.52;;;;;;;5.80;71.10;93824.41;5017289;28;20049;-76
2021/12/02 10:59:50;;;;;;;2.80;1.10;;;;;;;5.59;73.29;93829.09;5010911;28;20045;-78
2021/12/02 11:02:25;;;;;;;4.45;1.30;;;;;;;5.69;74.13;93829.78;5013280;28;20416;-80
2021/12/02 11:04:54;;;;;;;2.95;1.35;;;;;;;5.67;73.99;93826.66;5010297;28;20042;-78
2021/12/02 11:07:26;;;;;;;3.88;1.20;;;;;;;5.65;74.53;93818.34;5019932;28;20046;-79
2021/12/02 11:09:54;;;;;;;4.55;1.73;;;;;;;5.68;73.31;93817.00;5008236;28;20034;-79
2021/12/02 11:12:25;;;;;;;2.67;1.05;;;;;;;5.58;72.41;93817.91;5019420;28;20049;-80
2021/12/02 11:14:53;;;;;;;2.35;1.30;;;;;;;5.58;71.78;93817.91;5018171;28;20065;-79
2021/12/02 11:17:19;;;;;;;3.25;1.13;;;;;;;5.61;72.68;93812.13;5012390;28;20675;-80
2021/12/02 11:19:47;;;;;;;7.13;1.60;;;;;;;5.56;72.54;93814.78;5023007;28;20042;-78
2021/12/02 11:22:22;;;;;;;4.03;1.08;;;;;;;5.47;72.27;93816.44;5002274;28;20061;-79
2021/12/02 11:24:49;;;;;;;4.07;1.00;;;;;;;5.22;72.92;93826.09;5024266;28;20038;-80
2021/12/02 11:27:19;;;;;;;2.45;1.40;;;;;;;5.15;73.23;93810.78;5015984;28;20045;-81
2021/12/02 11:29:51;;;;;;;6.32;1.67;;;;;;;5.96;72.54;93812.75;5030115;28;20187;-79
2021/12/02 11:32:26;;;;;;;1.63;0.95;;;;;;;6.33;67.83;93795.53;5011221;28;20052;-79
2021/12/02 11:35:06;;;;;;;;;;;;;;;5.65;71.10;93800.06;5009900;28;20041;-79
2021/12/02 11:37:33;;;;;;;2.22;0.77;;;;;;;5.78;71.14;93798.59;5017124;28;20374;-82
2021/12/02 11:40:28;;;;;;;2.22;1.30;;;;;;;5.83;71.90;93797.75;5016163;28;20062;-78
2021/12/02 11:42:55;;;;;;;4.60;1.10;;;;;;;6.46;69.12;93793.25;4995129;28;20057;-79
2021/12/02 11:45:23;;;;;;;5.03;1.23;;;;;;;6.82;68.13;93783.00;5013717;28;20098;-81
2021/12/02 11:47:51;;;;;;;2.67;1.23;;;;;;;6.76;67.68;93787.53;4995248;28;20034;-79
2021/12/02 11:50:19;;;;;;;3.67;1.05;;;;;;;6.46;68.80;93778.34;5016796;28;20041;-81
2021/12/02 11:52:45;;;;;;;7.20;1.30;;;;;;;7.16;66.41;93778.50;5015697;28;20153;-81
2021/12/02 11:55:18;;;;;;;2.47;1.05;;;;;;;6.88;67.92;93789.72;4991271;28;20152;-80
2021/12/02 11:57:45;;;;;;;2.50;1.25;;;;;;;6.85;66.58;93773.81;5014684;28;20045;-79
2021/12/02 12:00:14;;;;;;;2.67;1.30;;;;;;;6.96;67.70;93785.66;5036359;28;20065;-79
2021/12/02 12:02:47;;;;;;;1.92;1.00;;;;;;;6.29;67.40;93773.63;5002652;28;20042;-79
2021/12/02 12:05:14;;;;;;;4.57;1.10;;;;;;;6.30;68.55;93764.75;5016601;28;20041;-76